Huvudsida
METAR-TAF:

METAR-TAF

Flygplatser :

Toulon-Hyères flygplats

Toulon, Frankrike

latitud: 43-06N, longitud: 006-09E, höjd: 3 m

Aktuellt väderrapport

Denna rapport gjordes för 33 minuter sedan, klockan 16:00 UTC
Vind 7 kt från ost/sydost, varierande mellan ost och sydost
Temperatur 15°C
Fuktighet 77%
Tryck 1011 hPa
Sikt 10 km eller mer
Få moln på en höjd av 200 ft

METAR: LFTH 291600Z AUTO 11007KT 080V140 9999 FEW002 15/11 Q1011 NOSIG

Tid: 18:33 (16:33 UTC)

Väderprognos

Denna rapport gjordes för 2 timmar och 33 minuter sedan, klockan 14:00 UTC
Prognos gäller från 29 kl. 15 UTC till 30 kl. 15 UTC
Vind 10 kt från ost
Sikt 10 km eller mer
Inga moln under 1 500 m eller inga cumulonimbus
Sannolikhet 40% :
Temporärt
från 29 kl. 22 UTC till 30 kl. 03 UTC
Brutna moln på en höjd av 1400 ft

TAF: LFTH 291400Z 2915/3015 10010KT CAVOK PROB40 TEMPO 2922/3003 BKN014

Aktuella väderrapporter och prognoser från 4000 flygplatser (METAR- och TAF-rapporter).

De tillgängliga stationerna syns som gula och röda prickar på kartan.

För musen över prickarna för att se namnen på stationerna.

Klicka sedan för att få väderrapporter och prognoser.

För att ändra kartan: Klicka på de gröna knapparna med ett svart kors på för att zooma in; den gröna knappen med ett streck på för att zooma ut; eller på de gröna pilarna för angränsande kartor.


METAR-TAF: